Observations for EXETER AIRPORT, United Kingdom (EGTE)

EGTE 201650Z 31011KT 290V350 9999 FEW018 SCT030 18/14 Q1020 
EGTE 201620Z 30009KT 260V330 9999 FEW013 SCT030 19/15 Q1020 
EGTE 201550Z 31013KT 9999 FEW013 SCT030 19/15 Q1020 
EGTE 201520Z 30010KT 270V340 9999 9000NW VCSH FEW010 BKN025 20/16 Q1020 
EGTE 201450Z 31012KT 9999 FEW010 BKN027 21/17 Q1020 
EGTE 201420Z 32010KT 9999 FEW010 BKN025 21/16 Q1020 
EGTE 201350Z 32011KT 280V340 9999 FEW010 BKN025 21/16 Q1020 
EGTE 201320Z 27009KT 240V300 9999 SCT025 22/16 Q1020
EGTE 201250Z 26009KT 230V290 9999 SCT025 22/16 Q1020
EGTE 201220Z 26009KT 230V290 9999 SCT025 23/16 Q1020
EGTE 201150Z 31008KT 280V340 9999 SCT025 23/16 Q1020
EGTE 201120Z VRB06KT 9999 SCT025 22/15 Q1021
EGTE 201050Z 26008KT 200V290 9999 SCT025 23/15 Q1021
EGTE 201020Z 26008KT 230V310 9999 SCT022 21/15 Q1021
EGTE 200950Z 18009KT 9999 SCT020 20/15 Q1021
EGTE 200920Z 20008KT 160V230 9999 SCT020 20/15 Q1021
EGTE 200850Z 20008KT 170V240 9999 SCT015 20/15 Q1021
EGTE 200820Z 20008KT 170V230 9999 SCT015 19/15 Q1021
EGTE 200750Z 17010KT 150V210 9999 SCT018 18/15 Q1021
EGTE 200720Z 18012KT 9999 SCT020 16/13 Q1021
EGTE 200650Z 18009KT 9999 SCT020 16/13 Q1021
EGTE 200620Z 17006KT 9999 FEW008 BKN016 16/15 Q1021 
EGTE 200550Z 19004KT 150V230 9999 FEW008 SCT016 17/16 Q1021 
EGTE 200520Z 21004KT 190V250 9999 SCT014 16/16 Q1021
EGTE 200450Z VRB02KT 9999 BKN014 13/12 Q1021
EGTE 200050Z 16003KT 9999 SCT012 13/12 Q1022
EGTE 192320Z 19004KT CAVOK 14/13 Q1022  
EGTE 192250Z 19005KT 9999 FEW020 15/13 Q1022
EGTE 192220Z 21004KT 9999 FEW020 16/14 Q1023
EGTE 192150Z 23003KT 9999 FEW020 17/14 Q1023
EGTE 192120Z 23005KT 200V260 9999 BKN018 18/15 Q1023
EGTE 192050Z 23005KT 9999 BKN018 18/15 Q1023
EGTE 192020Z 23007KT 9999 SCT020 19/16 Q1023
EGTE 191950Z 24006KT 9999 FEW020 20/16 Q1023
EGTE 191920Z 23008KT 9999 FEW030 19/16 Q1023
EGTE 191850Z 23010KT 9999 FEW030 18/14 Q1023
EGTE 191820Z 22011KT 9999 SCT030 20/16 Q1023
EGTE 191750Z 22010KT 9999 FEW022 SCT035 22/17 Q1023 
EGTE 191720Z 22009KT 9999 FEW025 SCT035 22/17 Q1023 
EGTE 191650Z 22011KT 9999 SCT025 SCT040 24/18 Q1023 
EGTE 191620Z 23008KT 200V260 9999 SCT025 SCT038 22/16 Q1023